Time;durP1;ratioP1;P1;durP2;ratioP2;P2;SDS_P1;SDS_P2;PMS_P1;PMS_P2;Temp;Humidity;BMP_temperature;BMP_pressure;BME280_temperature;BME280_humidity;BME280_pressure;Samples;Min_cycle;Max_cycle;Signal;HPM_P1;HPM_P2
2023/10/09 00:02:06;;;;;;;5.20;2.90;;;6.80;1.00;;;;;;10457213;28;20200;-78
2023/10/09 00:07:30;;;;;;;5.33;2.77;;;6.70;1.00;;;;;;10479091;28;20439;-78
2023/10/09 00:12:51;;;;;;;4.87;2.60;;;6.70;1.00;;;;;;10451412;28;20504;-78
2023/10/09 00:18:12;;;;;;;3.40;2.30;;;6.70;1.00;;;;;;10437210;28;20197;-78
2023/10/09 00:23:34;;;;;;;3.87;2.07;;;6.70;1.00;;;;;;10449219;28;20467;-77
2023/10/09 00:28:55;;;;;;;11.37;5.23;;;6.60;1.00;;;;;;10437145;28;20390;-78
2023/10/09 00:34:21;;;;;;;9.43;4.80;;;6.50;1.00;;;;;;10437464;28;20262;-77
2023/10/09 00:39:44;;;;;;;6.60;3.83;;;6.30;1.00;;;;;;10436334;28;20284;-78
2023/10/09 00:45:09;;;;;;;6.77;3.33;;;6.20;90.10;;;;;;10455942;28;20236;-77
2023/10/09 00:50:35;;;;;;;6.57;3.17;;;6.20;99.90;;;;;;10448635;28;20418;-78
2023/10/09 00:56:11;;;;;;;7.23;2.90;;;6.10;99.90;;;;;;10437653;28;20219;-78
2023/10/09 01:01:37;;;;;;;5.57;2.83;;;6.00;99.90;;;;;;10454999;28;20200;-77
2023/10/09 01:07:06;;;;;;;4.53;2.40;;;6.10;99.90;;;;;;10464454;28;20240;-78
2023/10/09 01:12:28;;;;;;;4.13;2.33;;;6.00;99.90;;;;;;10421675;28;20200;-76
2023/10/09 01:17:50;;;;;;;3.90;1.83;;;6.10;99.90;;;;;;10432817;28;20202;-78
2023/10/09 01:23:12;;;;;;;2.70;1.60;;;6.30;99.90;;;;;;10397339;28;20331;-78
2023/10/09 01:28:33;;;;;;;2.97;1.80;;;6.40;99.90;;;;;;10445288;28;20256;-79
2023/10/09 01:33:59;;;;;;;3.47;1.83;;;6.50;38.80;;;;;;10451730;28;20247;-79
2023/10/09 01:39:40;;;;;;;2.90;1.70;;;6.60;1.00;;;;;;10462074;28;20205;-77
2023/10/09 01:45:41;;;;;;;3.43;1.70;;;6.70;1.00;;;;;;10453925;28;20544;-78
2023/10/09 01:50:49;;;;;;;2.80;2.03;;;6.70;1.00;;;;;;10435883;28;20274;-77
2023/10/09 01:56:15;;;;;;;4.27;2.33;;;6.70;1.00;;;;;;10436186;28;20465;-79
2023/10/09 02:01:40;;;;;;;5.80;2.40;;;6.70;1.00;;;;;;10476429;28;20204;-78
2023/10/09 02:07:06;;;;;;;5.00;3.20;;;6.60;1.00;;;;;;10470573;28;20437;-78
2023/10/09 02:12:33;;;;;;;8.53;6.43;;;6.50;1.00;;;;;;10477075;28;20195;-79
2023/10/09 02:18:00;;;;;;;4.33;2.93;;;6.50;1.00;;;;;;10448751;28;20194;-76
2023/10/09 02:23:30;;;;;;;3.50;2.20;;;6.50;1.00;;;;;;10427755;28;20250;-76
2023/10/09 02:29:14;;;;;;;3.93;2.17;;;6.50;1.00;;;;;;10443309;28;20197;-78
2023/10/09 02:34:38;;;;;;;3.10;1.90;;;6.60;7.30;;;;;;10440253;28;20205;-77
2023/10/09 02:40:04;;;;;;;3.63;1.87;;;6.50;8.40;;;;;;10474972;28;20213;-77
2023/10/09 02:45:34;;;;;;;4.17;2.37;;;6.50;27.70;;;;;;10441023;28;20282;-78
2023/10/09 02:58:20;;;;;;;9.13;4.97;;;6.50;53.10;;;;;;10439116;28;20188;-79
2023/10/09 03:03:47;;;;;;;4.93;3.17;;;6.50;90.10;;;;;;10441490;28;20276;-78
2023/10/09 03:09:18;;;;;;;3.93;2.50;;;6.50;95.30;;;;;;10468840;28;20249;-79
2023/10/09 03:14:44;;;;;;;4.27;2.60;;;6.40;99.90;;;;;;10439885;28;20192;-79
2023/10/09 03:20:12;;;;;;;3.63;2.00;;;6.40;99.90;;;;;;10439774;28;20198;-79
2023/10/09 03:25:33;;;;;;;6.10;1.80;;;6.40;85.20;;;;;;10438012;28;20225;-79
2023/10/09 03:30:54;;;;;;;3.73;2.30;;;6.40;99.90;;;;;;10458856;28;20220;-78
2023/10/09 03:36:16;;;;;;;4.97;2.17;;;6.40;86.10;;;;;;10466652;28;20293;-80
2023/10/09 03:41:41;;;;;;;3.63;2.83;;;6.40;69.10;;;;;;10467689;28;20213;-79
2023/10/09 03:47:04;;;;;;;3.57;2.20;;;6.40;93.50;;;;;;10465529;28;20301;-78
2023/10/09 03:52:27;;;;;;;3.10;2.13;;;6.50;79.70;;;;;;10438999;28;20220;-78
2023/10/09 03:57:48;;;;;;;5.63;3.47;;;6.50;34.80;;;;;;10437272;28;20303;-78
2023/10/09 04:03:11;;;;;;;9.70;5.87;;;6.50;63.20;;;;;;10438405;28;20278;-78
2023/10/09 04:08:33;;;;;;;6.93;5.73;;;6.50;99.90;;;;;;10459083;28;20241;-77
2023/10/09 04:13:59;;;;;;;11.50;7.37;;;6.40;99.90;;;;;;10465181;28;20463;-77
2023/10/09 04:19:22;;;;;;;6.10;3.90;;;6.40;99.90;;;;;;10453191;28;20206;-79
2023/10/09 04:24:44;;;;;;;5.70;2.93;;;6.40;99.90;;;;;;10438367;28;20259;-78
2023/10/09 04:30:07;;;;;;;6.17;2.83;;;6.50;95.10;;;;;;10418789;28;20198;-80
2023/10/09 04:35:30;;;;;;;5.80;3.20;;;6.50;2.80;;;;;;10436114;28;20215;-78
2023/10/09 04:40:51;;;;;;;7.87;4.03;;;6.60;1.00;;;;;;10437594;28;20190;-77
2023/10/09 04:46:13;;;;;;;11.87;5.67;;;6.60;1.00;;;;;;10469077;28;20228;-78
2023/10/09 04:51:35;;;;;;;14.80;6.33;;;6.60;1.00;;;;;;10464890;28;20208;-80
2023/10/09 04:56:56;;;;;;;7.03;3.53;;;6.50;49.80;;;;;;10446819;28;20279;-81
2023/10/09 05:02:23;;;;;;;3.77;2.67;;;6.50;99.90;;;;;;10477986;28;20193;-79
2023/10/09 05:07:56;;;;;;;3.67;2.30;;;6.40;99.90;;;;;;10472107;28;20239;-79
2023/10/09 05:13:41;;;;;;;4.03;2.37;;;6.40;99.90;;;;;;10476943;28;20219;-81
2023/10/09 05:19:03;;;;;;;7.67;2.60;;;6.50;99.90;;;;;;10471558;28;20196;-80
2023/10/09 05:24:26;;;;;;;5.93;2.70;;;6.60;99.90;;;;;;10434940;28;20217;-80
2023/10/09 05:29:59;;;;;;;5.73;3.23;;;6.70;99.90;;;;;;10436511;28;20254;-80
2023/10/09 05:35:39;;;;;;;5.47;2.90;;;6.60;47.00;;;;;;10436282;28;20491;-81
2023/10/09 05:41:31;;;;;;;9.50;3.80;;;6.60;49.80;;;;;;10434576;28;20381;-79
2023/10/09 05:47:22;;;;;;;9.67;5.60;;;6.70;99.90;;;;;;10436580;28;20229;-79
2023/10/09 05:52:42;;;;;;;12.23;7.27;;;6.70;79.20;;;;;;10474556;28;20249;-79
2023/10/09 06:03:48;;;;;;;19.53;10.60;;;6.70;81.10;;;;;;10416055;28;20376;-82
2023/10/09 06:19:59;;;;;;;10.17;5.00;;;7.00;20.80;;;;;;10483931;28;20189;-81
2023/10/09 06:25:26;;;;;;;9.17;4.80;;;7.20;1.00;;;;;;10441532;28;20224;-79
2023/10/09 06:30:48;;;;;;;6.93;3.47;;;7.40;1.00;;;;;;10469830;28;20198;-81
2023/10/09 06:36:17;;;;;;;3.70;2.13;;;7.70;1.00;;;;;;10468677;28;20244;-81
2023/10/09 06:41:45;;;;;;;2.33;1.50;;;7.80;1.00;;;;;;10455161;28;20273;-79
2023/10/09 06:47:08;;;;;;;3.53;1.50;;;7.80;1.00;;;;;;10441253;28;20234;-80
2023/10/09 06:52:56;;;;;;;5.50;1.90;;;7.70;1.00;;;;;;10439102;28;20244;-79
2023/10/09 06:58:15;;;;;;;1.93;1.40;;;7.70;1.00;;;;;;10440659;28;20418;-79
2023/10/09 07:03:51;;;;;;;3.57;1.83;;;7.70;1.00;;;;;;10441752;28;20207;-79
2023/10/09 07:20:08;;;;;;;4.77;1.37;;;8.10;1.00;;;;;;10461526;28;20244;-80
2023/10/09 07:25:40;;;;;;;3.90;2.10;;;8.20;1.00;;;;;;10439699;28;20642;-81
2023/10/09 07:31:03;;;;;;;3.00;1.50;;;8.40;1.00;;;;;;10415552;28;20331;-80
2023/10/09 07:36:34;;;;;;;4.23;1.40;;;8.60;1.00;;;;;;10420507;28;20404;-83
2023/10/09 07:42:01;;;;;;;2.43;1.50;;;8.90;1.00;;;;;;10431596;28;20230;-87
2023/10/09 07:53:14;;;;;;;2.47;1.67;;;9.50;1.00;;;;;;10474761;28;20439;-80
2023/10/09 07:58:46;;;;;;;2.30;1.37;;;9.60;1.00;;;;;;10430189;28;20206;-86
2023/10/09 08:04:14;;;;;;;4.87;2.00;;;9.50;1.00;;;;;;10403735;28;20354;-79
2023/10/09 08:09:46;;;;;;;4.33;1.50;;;9.40;1.00;;;;;;10391072;28;20309;-79
2023/10/09 08:26:28;;;;;;;2.73;1.70;;;9.90;1.00;;;;;;10441297;28;20235;-79
2023/10/09 08:31:56;;;;;;;2.47;1.37;;;10.30;1.00;;;;;;10426693;28;20273;-79
2023/10/09 08:37:19;;;;;;;2.43;1.30;;;10.70;1.00;;;;;;10434002;28;20423;-79
2023/10/09 08:42:40;;;;;;;0.95;0.85;;;11.50;1.00;;;;;;10458946;28;20248;-79
2023/10/09 08:48:06;;;;;;;1.42;1.13;;;;;;;;;;10472111;28;20320;-79
2023/10/09 08:53:31;;;;;;;3.70;1.23;;;15.00;1.00;;;;;;10462600;28;20508;-79
2023/10/09 08:58:57;;;;;;;1.48;1.00;;;15.50;1.00;;;;;;10391177;28;20201;-78
2023/10/09 09:04:52;;;;;;;1.50;1.00;;;15.90;1.00;;;;;;10433337;28;20240;-79
2023/10/09 09:10:31;;;;;;;1.83;1.10;;;15.20;1.00;;;;;;10383278;28;20251;-78
2023/10/09 09:15:55;;;;;;;4.95;3.05;;;14.80;1.00;;;;;;10369249;28;20209;-80
2023/10/09 09:21:24;;;;;;;3.63;2.30;;;16.90;1.00;;;;;;10363539;28;20307;-83
2023/10/09 09:26:46;;;;;;;2.20;1.30;;;;;;;;;;10343925;28;20261;-80
2023/10/09 09:32:19;;;;;;;1.00;0.70;;;17.90;1.00;;;;;;10327164;28;20225;-84
2023/10/09 09:43:05;;;;;;;1.75;0.80;;;17.30;99.90;;;;;;10346627;28;20221;-79
2023/10/09 09:48:27;;;;;;;0.77;0.70;;;17.80;99.90;;;;;;10428851;28;20227;-79
2023/10/09 09:53:48;;;;;;;1.48;0.70;;;18.40;1.00;;;;;;10425761;28;20208;-78
2023/10/09 09:59:21;;;;;;;0.82;0.80;;;18.00;1.00;;;;;;10376056;28;20215;-79
2023/10/09 10:04:44;;;;;;;0.73;0.40;;;18.20;1.00;;;;;;10408217;28;20502;-79
2023/10/09 10:10:38;;;;;;;0.77;0.50;;;18.30;1.00;;;;;;10442691;28;20236;-79
2023/10/09 10:16:00;;;;;;;1.48;0.90;;;18.20;1.00;;;;;;10428744;28;20224;-84
2023/10/09 10:27:24;;;;;;;1.83;1.60;;;17.80;1.00;;;;;;10439786;28;20311;-79
2023/10/09 10:33:22;;;;;;;3.20;2.13;;;17.10;1.00;;;;;;10427023;28;20370;-78
2023/10/09 10:38:49;;;;;;;2.70;1.10;;;16.90;1.00;;;;;;10466091;28;20378;-79
2023/10/09 10:50:35;;;;;;;0.73;0.68;;;15.70;1.00;;;;;;10471942;28;20228;-79
2023/10/09 11:07:24;;;;;;;0.55;0.55;;;18.30;1.00;;;;;;10460120;28;20243;-80
2023/10/09 11:23:53;;;;;;;2.20;0.70;;;18.90;97.60;;;;;;10467823;28;20243;-84
2023/10/09 11:29:23;;;;;;;1.52;0.70;;;18.80;77.20;;;;;;10404598;28;20236;-80
2023/10/09 11:34:52;;;;;;;1.13;0.52;;;18.20;94.90;;;;;;10431186;28;20205;-78
2023/10/09 11:41:35;;;;;;;1.13;0.70;;;17.90;95.00;;;;;;10415081;28;20266;-79
2023/10/09 11:46:48;;;;;;;2.53;0.85;;;17.60;79.30;;;;;;10434181;28;20232;-78
2023/10/09 11:57:31;;;;;;;12.75;8.23;;;;;;;;;;10447817;28;20254;-82
2023/10/09 12:02:53;;;;;;;2.33;1.05;;;;;;;;;;10435150;28;20535;-81
2023/10/09 12:08:16;;;;;;;1.73;0.80;;;21.80;99.90;;;;;;10433722;28;20236;-82
2023/10/09 12:13:38;;;;;;;2.65;0.77;;;22.00;99.90;;;;;;10435532;28;20231;-79
2023/10/09 12:19:02;;;;;;;0.57;0.50;;;;;;;;;;10417861;28;20213;-80
2023/10/09 12:24:23;;;;;;;1.52;0.65;;;22.80;99.90;;;;;;10449538;28;20200;-79
2023/10/09 12:29:45;;;;;;;8.90;6.18;;;23.00;99.90;;;;;;10422351;28;20544;-80
2023/10/09 12:35:17;;;;;;;1.95;0.77;;;23.30;99.90;;;;;;10434332;28;20482;-79
2023/10/09 12:40:50;;;;;;;1.88;0.75;;;23.30;99.90;;;;;;10433445;28;20480;-78
2023/10/09 12:46:16;;;;;;;1.88;1.17;;;23.30;99.90;;;;;;10427877;28;20301;-88
2023/10/09 12:51:40;;;;;;;2.83;0.77;;;23.10;99.90;;;;;;10431194;28;20211;-78
2023/10/09 12:57:01;;;;;;;1.33;0.77;;;21.80;99.90;;;;;;10429328;28;20205;-83
2023/10/09 13:02:28;;;;;;;1.70;1.00;;;21.80;99.90;;;;;;10442717;28;20202;-82
2023/10/09 13:07:50;;;;;;;3.60;0.93;;;22.10;99.90;;;;;;10447200;28;20232;-77
2023/10/09 13:13:11;;;;;;;4.75;2.78;;;22.40;99.90;;;;;;10447091;28;20258;-79
2023/10/09 13:18:33;;;;;;;4.75;2.30;;;22.20;99.90;;;;;;10461741;28;20199;-78
2023/10/09 13:23:57;;;;;;;10.02;4.65;;;22.10;99.90;;;;;;10430583;28;20217;-79
2023/10/09 13:29:24;;;;;;;2.25;1.35;;;21.50;99.90;;;;;;10445857;28;20232;-83
2023/10/09 13:34:45;;;;;;;2.88;1.42;;;20.70;99.90;;;;;;10429704;28;20425;-78
2023/10/09 13:40:09;;;;;;;4.70;2.90;;;20.00;99.90;;;;;;10444949;28;20233;-77
2023/10/09 13:45:32;;;;;;;3.20;1.75;;;18.90;99.90;;;;;;10456435;28;20287;-78
2023/10/09 13:50:58;;;;;;;7.55;5.00;;;19.10;99.90;;;;;;10454987;28;20231;-78
2023/10/09 13:56:21;;;;;;;6.88;3.92;;;19.40;99.90;;;;;;10450834;28;20215;-77
2023/10/09 14:01:47;;;;;;;25.58;13.25;;;18.60;99.90;;;;;;10447787;28;20241;-85
2023/10/09 14:07:09;;;;;;;25.05;14.15;;;17.50;99.90;;;;;;10456329;28;20245;-79
2023/10/09 14:12:31;;;;;;;11.93;5.20;;;16.60;99.90;;;;;;10446589;28;20293;-79
2023/10/09 14:17:55;;;;;;;10.30;4.63;;;15.80;99.90;;;;;;10469174;28;20198;-81
2023/10/09 14:23:20;;;;;;;8.13;3.58;;;15.50;99.90;;;;;;10438551;28;20200;-81
2023/10/09 14:28:42;;;;;;;10.75;4.53;;;15.30;99.90;;;;;;10457800;28;20236;-77
2023/10/09 14:34:04;;;;;;;11.57;4.57;;;15.10;99.90;;;;;;10448164;28;20237;-78
2023/10/09 14:39:27;;;;;;;6.57;3.80;;;14.90;1.00;;;;;;10457175;28;20228;-75
2023/10/09 14:44:49;;;;;;;6.63;4.50;;;14.60;1.00;;;;;;10452449;28;20197;-77
2023/10/09 14:50:13;;;;;;;12.23;5.93;;;14.20;1.00;;;;;;10435378;28;20558;-77
2023/10/09 14:55:35;;;;;;;9.52;5.30;;;13.90;99.90;;;;;;10420616;28;20200;-77
2023/10/09 15:00:56;;;;;;;12.10;5.70;;;13.80;1.00;;;;;;10396208;28;20201;-76
2023/10/09 15:06:18;;;;;;;16.55;6.70;;;13.70;99.90;;;;;;10410725;28;20227;-76
2023/10/09 15:11:40;;;;;;;18.65;8.05;;;13.50;99.90;;;;;;10401216;28;20525;-77
2023/10/09 15:17:02;;;;;;;20.95;9.80;;;13.30;1.00;;;;;;10397305;28;20397;-77
2023/10/09 15:22:25;;;;;;;19.77;9.25;;;13.20;1.00;;;;;;10409385;28;20415;-76
2023/10/09 15:27:46;;;;;;;24.95;10.57;;;13.10;1.00;;;;;;10431191;28;20231;-76
2023/10/09 15:33:10;;;;;;;19.48;10.18;;;13.00;1.00;;;;;;10437203;28;20498;-76
2023/10/09 15:38:31;;;;;;;14.82;8.30;;;12.90;1.00;;;;;;10436818;28;20204;-77
2023/10/09 15:43:53;;;;;;;21.63;9.75;;;12.60;99.90;;;;;;10437812;28;20209;-77
2023/10/09 15:49:15;;;;;;;19.90;9.63;;;12.60;1.00;;;;;;10424584;28;20277;-76
2023/10/09 15:54:36;;;;;;;17.85;7.18;;;12.50;99.90;;;;;;10439141;28;20223;-76
2023/10/09 15:59:58;;;;;;;15.48;7.03;;;12.20;99.90;;;;;;10438939;28;20433;-76
2023/10/09 16:05:25;;;;;;;12.85;7.07;;;12.00;99.90;;;;;;10452720;28;20191;-76
2023/10/09 16:10:47;;;;;;;14.98;7.35;;;11.90;99.90;;;;;;10450291;28;20243;-77
2023/10/09 16:16:08;;;;;;;22.03;11.57;;;11.70;99.90;;;;;;10438034;28;20381;-76
2023/10/09 16:21:30;;;;;;;25.27;12.63;;;11.50;99.90;;;;;;10438954;28;20214;-76
2023/10/09 16:26:53;;;;;;;31.40;16.83;;;11.30;99.90;;;;;;10437996;28;20635;-78
2023/10/09 16:32:14;;;;;;;29.70;17.10;;;11.00;99.90;;;;;;10437168;28;20203;-77
2023/10/09 16:37:35;;;;;;;42.70;22.43;;;10.80;99.90;;;;;;10451149;28;20270;-76
2023/10/09 16:42:57;;;;;;;48.43;24.37;;;10.60;99.90;;;;;;10450506;28;20198;-77
2023/10/09 16:48:18;;;;;;;60.97;30.33;;;10.50;99.90;;;;;;10437539;28;20544;-75
2023/10/09 16:53:39;;;;;;;60.10;33.07;;;10.50;99.90;;;;;;10436602;28;20216;-76
2023/10/09 16:59:01;;;;;;;63.57;33.57;;;10.40;99.90;;;;;;10434254;28;20468;-76
2023/10/09 17:04:23;;;;;;;70.37;37.80;;;10.20;99.90;;;;;;10436186;28;20194;-76
2023/10/09 17:09:47;;;;;;;192.83;80.33;;;10.10;99.90;;;;;;10448793;28;20236;-75
2023/10/09 17:15:14;;;;;;;242.73;96.60;;;10.00;99.90;;;;;;10446264;28;20208;-75
2023/10/09 17:20:48;;;;;;;312.83;120.67;;;9.90;1.00;;;;;;10435465;28;20204;-77
2023/10/09 17:26:10;;;;;;;313.87;120.73;;;9.80;1.00;;;;;;10434919;28;20225;-77
2023/10/09 17:31:34;;;;;;;289.50;112.57;;;9.60;1.00;;;;;;10433615;28;20201;-77
2023/10/09 17:36:57;;;;;;;260.87;104.07;;;9.50;1.00;;;;;;10433144;28;20515;-77
2023/10/09 17:42:20;;;;;;;227.20;90.70;;;9.40;1.00;;;;;;10433583;28;20198;-74
2023/10/09 17:47:41;;;;;;;191.53;74.97;;;9.40;1.00;;;;;;10431490;28;20245;-76
2023/10/09 17:53:04;;;;;;;162.93;65.77;;;9.20;1.00;;;;;;10393278;28;20193;-76
2023/10/09 17:58:26;;;;;;;165.10;66.53;;;9.20;1.00;;;;;;10391864;28;20198;-77
2023/10/09 18:03:47;;;;;;;191.27;83.10;;;9.00;1.00;;;;;;10409498;28;20238;-77
2023/10/09 18:11:55;;;;;;;192.87;83.57;;;8.90;1.00;;;;;;10513763;28;20763;-76
2023/10/09 18:17:19;;;;;;;132.97;60.33;;;8.70;1.00;;;;;;10483767;28;20210;-76
2023/10/09 18:22:40;;;;;;;137.70;58.07;;;8.70;14.80;;;;;;10485349;28;20366;-76
2023/10/09 18:28:02;;;;;;;133.77;57.63;;;8.50;99.90;;;;;;10512899;28;20243;-76
2023/10/09 18:33:25;;;;;;;118.60;50.53;;;8.40;99.90;;;;;;10487041;28;20203;-76
2023/10/09 18:38:50;;;;;;;123.10;50.30;;;8.40;99.90;;;;;;10485989;28;20204;-75
2023/10/09 18:44:12;;;;;;;99.27;44.53;;;8.20;99.90;;;;;;10503546;28;20201;-76
2023/10/09 18:49:37;;;;;;;91.63;39.80;;;8.20;99.90;;;;;;10545726;28;20225;-76
2023/10/09 18:54:58;;;;;;;80.67;34.70;;;8.20;99.90;;;;;;10525290;28;20564;-76
2023/10/09 19:00:30;;;;;;;67.63;32.23;;;8.10;99.90;;;;;;10498178;28;20376;-76
2023/10/09 19:05:51;;;;;;;82.27;37.10;;;8.10;99.90;;;;;;10519592;28;20205;-75
2023/10/09 19:11:13;;;;;;;101.60;50.10;;;8.10;99.90;;;;;;10487135;28;20337;-76
2023/10/09 19:16:34;;;;;;;138.90;65.33;;;8.20;1.00;;;;;;10501030;28;20195;-76
2023/10/09 19:21:59;;;;;;;162.50;77.40;;;8.30;99.90;;;;;;10450199;28;20198;-76
2023/10/09 19:27:25;;;;;;;156.37;77.53;;;8.30;99.90;;;;;;10463675;28;20211;-77
2023/10/09 19:32:48;;;;;;;138.90;69.80;;;8.40;99.90;;;;;;10460765;28;20196;-77
2023/10/09 19:38:10;;;;;;;142.13;71.87;;;8.40;99.90;;;;;;10471912;28;20199;-77
2023/10/09 19:43:31;;;;;;;137.93;71.97;;;8.40;99.90;;;;;;10473934;28;20271;-77
2023/10/09 19:48:55;;;;;;;133.13;69.70;;;8.50;99.90;;;;;;10425605;28;20230;-77
2023/10/09 19:54:17;;;;;;;135.43;71.20;;;8.50;99.90;;;;;;10426121;28;20221;-77
2023/10/09 19:59:39;;;;;;;129.90;69.27;;;8.40;99.90;;;;;;10429412;28;20401;-77
2023/10/09 20:05:00;;;;;;;141.80;72.07;;;8.50;99.90;;;;;;10411707;28;20203;-77
2023/10/09 20:10:21;;;;;;;168.27;83.20;;;8.50;1.00;;;;;;10411187;28;20432;-76
2023/10/09 20:15:47;;;;;;;151.83;73.30;;;8.60;99.90;;;;;;10458159;28;20187;-76
2023/10/09 20:21:12;;;;;;;126.37;63.30;;;8.60;99.90;;;;;;10458697;28;20373;-77
2023/10/09 20:26:33;;;;;;;123.80;61.53;;;8.60;99.90;;;;;;10462694;28;20200;-77
2023/10/09 20:31:55;;;;;;;134.20;63.00;;;8.60;1.00;;;;;;10475945;28;20292;-77
2023/10/09 20:37:16;;;;;;;125.77;65.10;;;8.60;99.90;;;;;;10480434;28;20198;-76
2023/10/09 20:42:37;;;;;;;144.20;67.90;;;8.70;99.90;;;;;;10450077;28;20208;-77
2023/10/09 20:47:59;;;;;;;155.03;75.53;;;8.70;99.90;;;;;;10468901;28;20219;-77
2023/10/09 20:53:20;;;;;;;135.17;68.13;;;8.70;1.00;;;;;;10442450;28;20207;-77
2023/10/09 20:58:42;;;;;;;125.37;65.23;;;8.70;1.00;;;;;;10439614;28;20211;-77
2023/10/09 21:04:04;;;;;;;141.63;74.13;;;8.70;1.00;;;;;;10436963;28;20261;-77
2023/10/09 21:09:25;;;;;;;139.93;73.37;;;8.70;1.00;;;;;;10436290;28;20252;-81
2023/10/09 21:14:46;;;;;;;139.87;68.50;;;8.70;1.00;;;;;;10448384;28;20202;-77
2023/10/09 21:20:18;;;;;;;126.23;66.23;;;8.70;1.00;;;;;;10436403;28;20203;-76
2023/10/09 21:25:39;;;;;;;134.03;74.23;;;8.80;1.00;;;;;;10444986;28;20424;-77
2023/10/09 21:31:03;;;;;;;146.80;76.80;;;8.80;1.00;;;;;;10437014;28;20322;-77
2023/10/09 21:36:24;;;;;;;116.13;61.67;;;8.80;1.00;;;;;;10451590;28;20226;-77
2023/10/09 21:41:46;;;;;;;105.77;52.87;;;8.80;1.00;;;;;;10460305;28;20285;-77
2023/10/09 21:47:07;;;;;;;78.97;43.07;;;8.90;1.00;;;;;;10466814;28;20187;-76
2023/10/09 21:52:28;;;;;;;79.23;43.13;;;8.90;1.00;;;;;;10436083;28;20203;-77
2023/10/09 21:57:50;;;;;;;95.37;48.57;;;8.90;1.00;;;;;;10425378;28;20286;-76
2023/10/09 22:03:11;;;;;;;86.90;47.37;;;8.80;40.70;;;;;;10435320;28;20199;-77
2023/10/09 22:08:33;;;;;;;78.47;40.77;;;8.80;99.90;;;;;;10435632;28;20232;-77
2023/10/09 22:13:54;;;;;;;60.40;32.23;;;8.80;99.90;;;;;;10474565;28;20204;-78
2023/10/09 22:19:22;;;;;;;56.17;28.20;;;8.90;99.90;;;;;;10421325;28;20193;-77
2023/10/09 22:24:48;;;;;;;48.63;27.70;;;8.90;99.90;;;;;;10447014;28;20346;-77
2023/10/09 22:30:12;;;;;;;43.53;20.97;;;9.00;99.90;;;;;;10439458;28;20522;-77
2023/10/09 22:35:35;;;;;;;26.33;14.07;;;9.00;99.90;;;;;;10444208;28;20198;-77
2023/10/09 22:40:56;;;;;;;15.43;9.07;;;9.20;99.90;;;;;;10465848;28;20288;-76
2023/10/09 22:46:21;;;;;;;13.13;7.10;;;9.20;99.90;;;;;;10435249;28;20223;-77
2023/10/09 22:51:54;;;;;;;12.37;6.90;;;9.30;1.00;;;;;;10434964;28;20231;-77
2023/10/09 22:57:16;;;;;;;9.23;6.07;;;9.20;1.00;;;;;;10443067;28;20256;-76
2023/10/09 23:02:51;;;;;;;11.50;6.87;;;9.00;99.90;;;;;;10442077;28;20190;-77
2023/10/09 23:08:18;;;;;;;13.23;7.33;;;8.80;99.90;;;;;;10441199;28;20244;-77
2023/10/09 23:14:14;;;;;;;10.53;6.47;;;8.70;99.90;;;;;;10445896;28;20495;-78
2023/10/09 23:25:08;;;;;;;12.23;7.63;;;8.50;1.00;;;;;;10450758;28;20277;-77
2023/10/09 23:30:30;;;;;;;17.77;9.47;;;8.50;1.00;;;;;;10440900;28;20265;-76
2023/10/09 23:35:55;;;;;;;17.03;9.77;;;8.40;1.00;;;;;;10437486;28;20203;-77
2023/10/09 23:41:16;;;;;;;17.33;9.33;;;8.30;99.90;;;;;;10464986;28;20272;-77
2023/10/09 23:46:44;;;;;;;11.50;6.83;;;8.30;99.90;;;;;;10439788;28;20200;-79
2023/10/09 23:52:06;;;;;;;11.87;7.67;;;8.20;99.90;;;;;;10454102;28;20284;-77
2023/10/09 23:57:29;;;;;;;10.10;5.90;;;8.20;99.90;;;;;;10440502;28;20199;-78
